Time;durP1;ratioP1;P1;durP2;ratioP2;P2;SDS_P1;SDS_P2;PMS_P1;PMS_P2;Temp;Humidity;BMP_temperature;BMP_pressure;BME280_temperature;BME280_humidity;BME280_pressure;Samples;Min_cycle;Max_cycle;Signal;HPM_P1;HPM_P2
2023/04/23 00:01:27;;;;;;;27.00;17.80;;;7.20;99.90;;;;;;12859598;23;20529;-85
2023/04/23 00:06:31;;;;;;;26.47;18.87;;;7.00;99.90;;;;;;12859292;23;20717;-85
2023/04/23 00:11:34;;;;;;;27.90;17.73;;;6.90;99.90;;;;;;12857891;23;20499;-85
2023/04/23 00:16:38;;;;;;;24.83;17.70;;;6.80;99.90;;;;;;12861517;23;20183;-85
2023/04/23 00:21:41;;;;;;;28.03;20.07;;;6.70;99.90;;;;;;12859900;23;20166;-85
2023/04/23 00:26:43;;;;;;;29.60;18.33;;;6.60;99.90;;;;;;12859166;23;20550;-85
2023/04/23 00:31:46;;;;;;;21.00;14.10;;;6.60;99.90;;;;;;12856198;23;20183;-85
2023/04/23 00:36:49;;;;;;;24.97;18.53;;;6.40;99.90;;;;;;12857429;23;20905;-85
2023/04/23 00:41:52;;;;;;;22.67;15.17;;;6.30;99.90;;;;;;12858498;23;20497;-85
2023/04/23 00:46:55;;;;;;;25.57;18.90;;;6.40;99.90;;;;;;12857921;23;20261;-85
2023/04/23 00:51:58;;;;;;;27.47;18.53;;;6.30;99.90;;;;;;12876901;23;20171;-85
2023/04/23 00:57:01;;;;;;;29.07;19.90;;;6.50;99.90;;;;;;12872894;23;20582;-85
2023/04/23 01:02:04;;;;;;;25.17;16.73;;;6.90;99.90;;;;;;12856181;23;20171;-85
2023/04/23 01:07:07;;;;;;;31.80;18.23;;;7.30;99.90;;;;;;12855983;23;20210;-85
2023/04/23 01:12:10;;;;;;;23.47;16.73;;;7.20;99.90;;;;;;12879970;23;20642;-85
2023/04/23 01:17:13;;;;;;;37.90;17.30;;;7.40;99.90;;;;;;12880079;23;20261;-85
2023/04/23 01:22:16;;;;;;;34.73;24.63;;;7.20;99.90;;;;;;12853888;23;20229;-85
2023/04/23 01:27:19;;;;;;;29.93;19.90;;;6.90;99.90;;;;;;12852745;23;20179;-85
2023/04/23 01:32:22;;;;;;;30.70;18.50;;;6.90;99.90;;;;;;12872174;23;20173;-85
2023/04/23 01:37:26;;;;;;;30.63;21.77;;;6.70;99.90;;;;;;12854478;23;20199;-85
2023/04/23 01:42:28;;;;;;;29.73;18.80;;;6.40;99.90;;;;;;12853375;23;20172;-85
2023/04/23 01:47:31;;;;;;;18.90;13.10;;;6.20;99.90;;;;;;12874023;23;20491;-85
2023/04/23 01:52:34;;;;;;;17.47;12.30;;;6.20;99.90;;;;;;12852555;23;20238;-85
2023/04/23 01:57:37;;;;;;;23.97;17.27;;;6.50;99.90;;;;;;12855166;23;20168;-85
2023/04/23 02:02:41;;;;;;;25.63;17.30;;;7.00;99.90;;;;;;12828581;23;20213;-86
2023/04/23 02:07:46;;;;;;;19.83;13.70;;;7.00;99.90;;;;;;12852817;23;20226;-86
2023/04/23 02:12:49;;;;;;;19.60;14.90;;;7.30;99.90;;;;;;12854741;23;20222;-86
2023/04/23 02:17:52;;;;;;;21.43;15.40;;;7.50;99.90;;;;;;12855104;23;20236;-85
2023/04/23 02:22:55;;;;;;;19.70;14.70;;;7.50;99.90;;;;;;12853084;23;20196;-86
2023/04/23 02:28:05;;;;;;;23.73;16.57;;;7.60;99.90;;;;;;12852021;23;20211;-85
2023/04/23 02:33:07;;;;;;;27.73;18.43;;;7.70;99.90;;;;;;12870636;23;20183;-86
2023/04/23 02:38:10;;;;;;;28.10;18.80;;;7.40;99.90;;;;;;12851531;23;20203;-86
2023/04/23 02:43:12;;;;;;;31.83;19.27;;;6.80;99.90;;;;;;12854361;23;20516;-86
2023/04/23 02:48:15;;;;;;;26.53;19.60;;;6.50;99.90;;;;;;12853734;23;20499;-85
2023/04/23 02:53:17;;;;;;;25.80;18.67;;;6.60;99.90;;;;;;12853633;23;20186;-85
2023/04/23 02:58:20;;;;;;;31.57;20.57;;;6.60;99.90;;;;;;12851448;23;20175;-85
2023/04/23 03:03:30;;;;;;;31.27;20.20;;;6.50;99.90;;;;;;12850922;23;20182;-86
2023/04/23 03:08:35;;;;;;;28.73;20.57;;;6.50;99.90;;;;;;12851367;23;20619;-86
2023/04/23 03:13:37;;;;;;;26.23;17.60;;;6.30;99.90;;;;;;12826808;23;20199;-86
2023/04/23 03:18:40;;;;;;;28.40;20.33;;;6.30;99.90;;;;;;12850727;23;20179;-86
2023/04/23 03:23:43;;;;;;;28.03;18.77;;;6.40;99.90;;;;;;12851952;23;20194;-86
2023/04/23 03:28:46;;;;;;;30.17;20.47;;;6.40;99.90;;;;;;12850996;23;20209;-86
2023/04/23 03:33:48;;;;;;;26.23;19.70;;;6.30;99.90;;;;;;12850299;23;20203;-86
2023/04/23 03:38:57;;;;;;;28.30;19.57;;;6.20;99.90;;;;;;12850639;23;20199;-85
2023/04/23 03:44:06;;;;;;;36.60;21.33;;;6.30;99.90;;;;;;12851421;23;20261;-85
2023/04/23 03:49:19;;;;;;;27.40;19.97;;;6.20;99.90;;;;;;12876685;23;20179;-85
2023/04/23 03:54:23;;;;;;;20.87;15.50;;;6.20;99.90;;;;;;12850493;23;20665;-85
2023/04/23 03:59:39;;;;;;;28.13;17.50;;;6.50;99.90;;;;;;12850611;23;20183;-86
2023/04/23 04:04:44;;;;;;;28.53;19.70;;;6.80;99.90;;;;;;12850734;23;20243;-86
2023/04/23 04:09:48;;;;;;;30.83;20.37;;;6.70;99.90;;;;;;12826068;23;20648;-86
2023/04/23 04:14:50;;;;;;;33.83;23.13;;;6.50;99.90;;;;;;12850869;23;20190;-86
2023/04/23 04:19:53;;;;;;;35.33;23.63;;;6.50;99.90;;;;;;12853869;23;20175;-85
2023/04/23 04:24:56;;;;;;;32.07;22.20;;;6.40;99.90;;;;;;12854180;23;20218;-86
2023/04/23 04:30:00;;;;;;;22.70;18.00;;;6.70;99.90;;;;;;12876569;23;20213;-86
2023/04/23 04:35:04;;;;;;;22.43;16.30;;;6.90;99.90;;;;;;12856254;23;20187;-86
2023/04/23 04:40:07;;;;;;;26.87;18.27;;;7.20;99.90;;;;;;12856024;23;20249;-85
2023/04/23 04:45:10;;;;;;;30.47;19.07;;;7.60;99.90;;;;;;12879399;23;20553;-85
2023/04/23 04:50:12;;;;;;;28.10;19.03;;;7.70;99.90;;;;;;12873159;23;20626;-85
2023/04/23 04:55:15;;;;;;;28.47;21.33;;;8.20;99.90;;;;;;12854026;23;20985;-85
2023/04/23 05:00:27;;;;;;;28.43;20.17;;;8.20;99.90;;;;;;12865123;23;20171;-85
2023/04/23 05:05:31;;;;;;;19.40;14.63;;;8.30;99.90;;;;;;12855575;23;20183;-85
2023/04/23 05:10:33;;;;;;;25.47;15.73;;;8.60;99.90;;;;;;12874575;23;20167;-86
2023/04/23 05:15:36;;;;;;;30.87;21.07;;;8.80;99.90;;;;;;12855699;23;20203;-86
2023/04/23 05:20:38;;;;;;;26.30;19.10;;;9.00;99.90;;;;;;12855438;23;20167;-86
2023/04/23 05:25:41;;;;;;;26.27;18.17;;;9.30;99.90;;;;;;12855297;23;20173;-86
2023/04/23 05:30:44;;;;;;;21.53;16.20;;;9.40;99.90;;;;;;12855334;23;20183;-86
2023/04/23 05:35:46;;;;;;;27.67;18.17;;;9.60;99.90;;;;;;12855529;23;20191;-85
2023/04/23 05:40:49;;;;;;;21.23;15.07;;;9.90;99.90;;;;;;12855310;23;20570;-86
2023/04/23 05:45:51;;;;;;;22.33;15.47;;;10.10;99.90;;;;;;12854783;23;20177;-85
2023/04/23 05:50:54;;;;;;;13.37;10.77;;;10.30;99.90;;;;;;12854529;23;20170;-85
2023/04/23 05:55:56;;;;;;;22.03;16.73;;;10.60;99.90;;;;;;12872761;23;20195;-86
2023/04/23 06:00:59;;;;;;;26.67;17.13;;;10.80;99.90;;;;;;12855884;23;20173;-86
2023/04/23 06:06:01;;;;;;;24.10;15.97;;;11.00;99.90;;;;;;12855708;23;20483;-86
2023/04/23 06:11:05;;;;;;;21.13;16.47;;;11.20;99.90;;;;;;12855356;23;20181;-86
2023/04/23 06:16:08;;;;;;;18.43;13.07;;;11.40;99.90;;;;;;12853667;23;20249;-86
2023/04/23 06:21:10;;;;;;;16.10;13.00;;;11.60;99.90;;;;;;12852387;23;20209;-86
2023/04/23 06:26:13;;;;;;;25.07;14.43;;;11.90;99.90;;;;;;12854286;23;20217;-85
2023/04/23 06:31:18;;;;;;;22.80;15.43;;;12.10;99.90;;;;;;12826908;23;20187;-86
2023/04/23 06:36:21;;;;;;;17.57;13.70;;;12.30;99.90;;;;;;12871402;23;20517;-86
2023/04/23 06:41:24;;;;;;;22.37;14.50;;;;;;;;;;12849683;23;20308;-86
2023/04/23 06:46:41;;;;;;;21.30;15.53;;;12.90;99.90;;;;;;12849199;23;20178;-85
2023/04/23 06:51:44;;;;;;;26.33;14.80;;;;;;;;;;12851245;23;20811;-86
2023/04/23 06:56:46;;;;;;;19.17;12.70;;;13.20;99.30;;;;;;12849743;23;20196;-85
2023/04/23 07:01:48;;;;;;;16.53;12.17;;;13.50;98.90;;;;;;12850783;23;20171;-85
2023/04/23 07:06:51;;;;;;;16.43;11.47;;;13.90;98.70;;;;;;12868637;23;20167;-85
2023/04/23 07:11:54;;;;;;;17.77;13.63;;;14.00;98.00;;;;;;12851065;23;20168;-85
2023/04/23 07:16:56;;;;;;;17.90;13.00;;;14.40;97.00;;;;;;12850801;23;20186;-85
2023/04/23 07:21:59;;;;;;;22.40;13.13;;;14.50;97.00;;;;;;12851116;23;20217;-86
2023/04/23 07:27:02;;;;;;;22.93;14.03;;;;;;;;;;12853417;23;20219;-85
2023/04/23 07:32:04;;;;;;;9.50;8.30;;;15.20;97.50;;;;;;12850501;23;20269;-85
2023/04/23 07:37:07;;;;;;;15.67;9.67;;;15.40;96.90;;;;;;12852118;23;20203;-85
2023/04/23 07:42:10;;;;;;;13.17;9.97;;;15.60;96.80;;;;;;12850765;23;20176;-86
2023/04/23 07:47:12;;;;;;;9.20;7.20;;;16.00;95.50;;;;;;12850069;23;20174;-86
2023/04/23 07:52:16;;;;;;;8.70;6.17;;;16.10;95.90;;;;;;12867709;23;20170;-87
2023/04/23 07:57:18;;;;;;;14.47;9.40;;;16.30;95.10;;;;;;12851834;23;20535;-87
2023/04/23 08:02:24;;;;;;;9.90;8.37;;;16.50;93.90;;;;;;12852846;23;20557;-87
2023/04/23 08:07:28;;;;;;;12.13;8.63;;;17.00;92.80;;;;;;12856143;23;20187;-86
2023/04/23 08:12:33;;;;;;;14.70;10.00;;;17.00;93.00;;;;;;12873377;23;20644;-86
2023/04/23 08:17:36;;;;;;;9.77;7.30;;;17.20;92.20;;;;;;12853298;23;20260;-86
2023/04/23 08:22:39;;;;;;;10.27;7.60;;;17.40;91.30;;;;;;12856020;23;20200;-87
2023/04/23 08:27:41;;;;;;;8.37;6.60;;;17.70;87.80;;;;;;12856941;23;20592;-86
2023/04/23 08:32:47;;;;;;;11.30;7.17;;;17.90;81.10;;;;;;12854914;23;20208;-87
2023/04/23 08:37:50;;;;;;;15.87;7.03;;;18.10;80.70;;;;;;12871358;23;20253;-87
2023/04/23 08:42:57;;;;;;;9.03;6.43;;;18.30;69.60;;;;;;12854768;23;20175;-86
2023/04/23 08:48:00;;;;;;;11.40;6.83;;;18.50;66.60;;;;;;12870686;23;20171;-87
2023/04/23 08:53:05;;;;;;;8.30;6.03;;;18.60;69.50;;;;;;12853124;23;20213;-87
2023/04/23 08:58:08;;;;;;;9.10;6.60;;;18.60;82.00;;;;;;12853079;23;20994;-87
2023/04/23 09:03:11;;;;;;;11.63;7.50;;;18.60;80.40;;;;;;12872848;23;20170;-87
2023/04/23 09:08:14;;;;;;;10.30;7.10;;;18.60;78.30;;;;;;12854471;23;20183;-87
2023/04/23 09:13:17;;;;;;;13.03;7.20;;;18.70;79.50;;;;;;12852219;23;20190;-87
2023/04/23 09:18:19;;;;;;;17.00;7.03;;;18.80;71.20;;;;;;12872093;23;20239;-87
2023/04/23 09:23:22;;;;;;;15.93;7.00;;;19.00;68.10;;;;;;12873307;23;20171;-87
2023/04/23 09:28:35;;;;;;;7.83;6.17;;;19.30;62.50;;;;;;12853614;23;20261;-87
2023/04/23 09:33:38;;;;;;;8.50;6.27;;;19.60;59.20;;;;;;12851854;23;20294;-87
2023/04/23 09:38:42;;;;;;;8.70;7.10;;;;;;;;;;12866060;23;20581;-87
2023/04/23 09:43:47;;;;;;;6.50;5.40;;;19.60;61.20;;;;;;12851554;23;20183;-87
2023/04/23 09:48:51;;;;;;;8.00;5.47;;;19.70;63.60;;;;;;12850528;23;20233;-87
2023/04/23 09:53:54;;;;;;;11.63;6.07;;;19.80;55.90;;;;;;12873382;23;20163;-87
2023/04/23 09:58:56;;;;;;;11.37;6.23;;;19.70;58.70;;;;;;12854353;23;20203;-87
2023/04/23 10:03:59;;;;;;;7.77;6.13;;;19.70;60.40;;;;;;12852589;23;20215;-87
2023/04/23 10:09:02;;;;;;;7.53;6.27;;;19.70;60.00;;;;;;12826795;23;20183;-87
2023/04/23 10:14:04;;;;;;;11.57;7.87;;;19.70;59.70;;;;;;12825501;23;20218;-86
2023/04/23 10:19:11;;;;;;;7.00;5.77;;;19.70;56.80;;;;;;12848241;23;20602;-86
2023/04/23 10:24:16;;;;;;;9.10;5.40;;;19.90;54.60;;;;;;12852347;23;20179;-86
2023/04/23 10:29:28;;;;;;;6.80;6.03;;;19.90;54.00;;;;;;12851166;23;20191;-86
2023/04/23 10:34:32;;;;;;;9.50;4.97;;;20.00;46.20;;;;;;12868643;23;20219;-86
2023/04/23 10:39:35;;;;;;;6.33;4.80;;;20.20;44.30;;;;;;12851011;23;20582;-86
2023/04/23 10:44:41;;;;;;;10.50;4.87;;;20.40;46.60;;;;;;12851438;23;20183;-86
2023/04/23 10:49:47;;;;;;;7.80;4.87;;;20.50;49.00;;;;;;12850971;23;20175;-85
2023/04/23 10:54:58;;;;;;;12.67;4.60;;;20.40;40.60;;;;;;12849322;23;20178;-86
2023/04/23 11:00:03;;;;;;;7.47;5.97;;;20.50;43.30;;;;;;12865063;23;20163;-86
2023/04/23 11:05:08;;;;;;;9.03;5.17;;;20.30;48.80;;;;;;12853086;23;20241;-85
2023/04/23 11:10:14;;;;;;;6.20;4.70;;;20.10;49.10;;;;;;12854051;23;20162;-84
2023/04/23 11:15:18;;;;;;;9.33;5.10;;;20.40;43.30;;;;;;12852220;23;20229;-84
2023/04/23 11:20:22;;;;;;;7.07;4.37;;;20.80;39.80;;;;;;12850795;23;20167;-84
2023/04/23 11:25:26;;;;;;;13.57;4.67;;;20.90;34.30;;;;;;12851392;23;20171;-86
2023/04/23 11:30:30;;;;;;;7.90;4.87;;;21.10;33.20;;;;;;12863183;23;20228;-84
2023/04/23 11:35:39;;;;;;;10.63;5.10;;;21.20;33.30;;;;;;12851769;23;20191;-85
2023/04/23 11:40:45;;;;;;;5.63;4.20;;;21.40;35.80;;;;;;12853597;23;20256;-85
2023/04/23 11:45:48;;;;;;;6.43;4.30;;;21.00;32.60;;;;;;12849879;23;20638;-86
2023/04/23 11:50:51;;;;;;;7.53;3.80;;;21.20;30.80;;;;;;12848162;23;20241;-86
2023/04/23 11:55:54;;;;;;;12.60;4.27;;;21.60;31.50;;;;;;12851606;23;20649;-85
2023/04/23 12:01:01;;;;;;;6.43;3.93;;;21.80;31.60;;;;;;12850570;23;20179;-86
2023/04/23 12:06:04;;;;;;;6.63;4.37;;;;;;;;;;12851569;23;20186;-88
2023/04/23 12:11:07;;;;;;;6.13;3.47;;;22.10;28.70;;;;;;12853609;23;20171;-89
2023/04/23 12:16:09;;;;;;;5.33;3.53;;;21.90;29.50;;;;;;12852148;23;20249;-88
2023/04/23 12:21:13;;;;;;;4.97;3.80;;;21.40;30.80;;;;;;12853159;23;20175;-89
2023/04/23 12:26:16;;;;;;;7.20;3.80;;;21.10;32.70;;;;;;12853244;23;20179;-88
2023/04/23 12:31:20;;;;;;;6.97;5.40;;;20.50;34.70;;;;;;12860034;23;20244;-89
2023/04/23 12:36:27;;;;;;;7.93;4.40;;;20.50;34.90;;;;;;12853880;23;20187;-89
2023/04/23 12:41:30;;;;;;;5.57;5.03;;;20.40;36.90;;;;;;12852630;23;20198;-88
2023/04/23 12:46:34;;;;;;;7.77;5.20;;;20.00;41.20;;;;;;12851790;23;20218;-88
2023/04/23 12:51:37;;;;;;;6.97;4.33;;;20.10;46.30;;;;;;12855912;23;20179;-88
2023/04/23 12:56:40;;;;;;;6.23;5.40;;;20.20;47.10;;;;;;12854296;23;20264;-88
2023/04/23 13:01:43;;;;;;;7.23;5.67;;;20.20;48.30;;;;;;12863105;23;20202;-88
2023/04/23 13:06:46;;;;;;;7.53;5.00;;;20.10;48.80;;;;;;12874753;23;20602;-88
2023/04/23 13:11:49;;;;;;;8.20;6.77;;;20.00;52.10;;;;;;12856054;23;20185;-88
2023/04/23 13:16:51;;;;;;;9.43;5.47;;;19.90;57.10;;;;;;12856338;23;20583;-89
2023/04/23 13:21:54;;;;;;;5.93;5.27;;;19.80;63.30;;;;;;12856642;23;20163;-89
2023/04/23 13:26:57;;;;;;;7.00;4.93;;;19.60;63.70;;;;;;12856513;23;20171;-89
2023/04/23 13:32:00;;;;;;;5.73;5.23;;;19.60;64.10;;;;;;12855614;23;20229;-89
2023/04/23 13:37:04;;;;;;;10.63;5.53;;;19.60;62.60;;;;;;12856701;23;20280;-88
2023/04/23 13:42:07;;;;;;;5.87;5.33;;;19.80;66.30;;;;;;12853743;23;20210;-89
2023/04/23 13:47:11;;;;;;;7.23;5.60;;;19.90;70.10;;;;;;12856330;23;20171;-88
2023/04/23 13:52:14;;;;;;;5.63;4.80;;;20.00;65.20;;;;;;12856224;23;20210;-88
2023/04/23 13:57:16;;;;;;;11.50;5.50;;;19.90;66.00;;;;;;12856027;23;20236;-88
2023/04/23 14:02:20;;;;;;;8.03;6.27;;;19.80;67.50;;;;;;12860150;23;20171;-89
2023/04/23 14:07:23;;;;;;;5.50;4.20;;;19.70;70.90;;;;;;12855537;23;20483;-88
2023/04/23 14:12:27;;;;;;;6.73;5.53;;;19.70;64.50;;;;;;12828674;23;20179;-88
2023/04/23 14:17:30;;;;;;;4.73;4.33;;;19.50;62.70;;;;;;12853463;23;20199;-89
2023/04/23 14:22:32;;;;;;;4.97;4.47;;;19.20;61.40;;;;;;12855288;23;20210;-88
2023/04/23 14:27:40;;;;;;;8.20;5.30;;;18.80;69.90;;;;;;12855399;23;20232;-88
2023/04/23 14:32:44;;;;;;;5.53;4.97;;;18.60;76.30;;;;;;12853555;23;20194;-88
2023/04/23 14:37:50;;;;;;;8.20;5.90;;;18.70;77.10;;;;;;12853674;23;20211;-88
2023/04/23 14:42:53;;;;;;;9.60;7.30;;;18.90;94.80;;;;;;12854761;23;20163;-88
2023/04/23 14:48:00;;;;;;;7.60;4.97;;;19.20;98.30;;;;;;12854002;23;20178;-88
2023/04/23 14:53:05;;;;;;;8.13;4.83;;;19.30;97.60;;;;;;12853895;23;20183;-85
2023/04/23 14:58:08;;;;;;;7.87;6.33;;;19.20;97.30;;;;;;12853232;23;20529;-85
2023/04/23 15:03:11;;;;;;;7.67;5.00;;;19.10;98.30;;;;;;12851000;23;20270;-87
2023/04/23 15:08:13;;;;;;;8.63;5.87;;;18.90;97.10;;;;;;12846162;23;20527;-87
2023/04/23 15:13:34;;;;;;;8.03;6.17;;;18.70;99.30;;;;;;12847325;23;20571;-85
2023/04/23 15:18:36;;;;;;;9.40;6.40;;;18.50;99.40;;;;;;12849407;23;20264;-86
2023/04/23 15:23:41;;;;;;;12.50;6.17;;;18.30;99.90;;;;;;12849185;23;20179;-86
2023/04/23 15:28:43;;;;;;;7.90;6.00;;;18.00;99.90;;;;;;12847418;23;20182;-86
2023/04/23 15:33:46;;;;;;;11.77;6.23;;;17.80;99.90;;;;;;12873140;23;20190;-86
2023/04/23 15:38:49;;;;;;;8.23;6.97;;;17.70;99.90;;;;;;12855612;23;20234;-87
2023/04/23 15:43:53;;;;;;;12.10;9.57;;;17.60;99.90;;;;;;12852365;23;20171;-87
2023/04/23 15:48:56;;;;;;;11.43;7.50;;;17.50;99.90;;;;;;12853138;23;20198;-86
2023/04/23 15:54:00;;;;;;;8.67;7.33;;;17.30;99.90;;;;;;12853811;23;20182;-86
2023/04/23 15:59:04;;;;;;;10.17;8.00;;;17.20;99.90;;;;;;12852142;23;20207;-86
2023/04/23 16:04:06;;;;;;;16.53;9.53;;;17.10;99.90;;;;;;12852934;23;20163;-86
2023/04/23 16:09:12;;;;;;;21.17;10.53;;;17.20;99.90;;;;;;12854062;23;20233;-86
2023/04/23 16:14:15;;;;;;;11.57;10.20;;;17.20;99.90;;;;;;12851530;23;20642;-85
2023/04/23 16:19:17;;;;;;;7.30;6.43;;;16.70;99.90;;;;;;12870318;23;20293;-85
2023/04/23 16:24:21;;;;;;;7.63;6.83;;;17.00;99.90;;;;;;12851776;23;20254;-86
2023/04/23 16:29:24;;;;;;;8.33;7.43;;;16.60;99.90;;;;;;12857449;23;20616;-86
2023/04/23 16:34:27;;;;;;;8.77;6.33;;;17.50;99.90;;;;;;12855342;23;20219;-86
2023/04/23 16:39:30;;;;;;;8.07;7.37;;;16.30;99.90;;;;;;12849538;23;20540;-86
2023/04/23 16:44:32;;;;;;;7.90;7.10;;;16.10;99.90;;;;;;12853752;23;20183;-86
2023/04/23 16:49:35;;;;;;;8.37;6.93;;;15.90;99.90;;;;;;12851220;23;20171;-86
2023/04/23 16:54:38;;;;;;;11.63;8.67;;;15.80;99.90;;;;;;12852960;23;20197;-86
2023/04/23 16:59:40;;;;;;;10.87;8.20;;;15.70;99.90;;;;;;12852188;23;20212;-86
2023/04/23 17:04:43;;;;;;;10.97;8.97;;;15.70;99.90;;;;;;12851115;23;20175;-86
2023/04/23 17:09:46;;;;;;;16.47;10.07;;;15.60;99.90;;;;;;12869866;23;20171;-86
2023/04/23 17:14:49;;;;;;;10.63;8.63;;;15.50;99.90;;;;;;12849404;23;20189;-87
2023/04/23 17:19:52;;;;;;;11.97;10.50;;;15.50;99.90;;;;;;12853180;23;20590;-86
2023/04/23 17:24:54;;;;;;;11.90;8.93;;;15.40;99.90;;;;;;12854110;23;20167;-86
2023/04/23 17:29:57;;;;;;;11.03;8.73;;;15.20;99.90;;;;;;12852039;23;20175;-86
2023/04/23 17:34:59;;;;;;;9.87;8.27;;;15.10;99.90;;;;;;12853796;23;20547;-86
2023/04/23 17:40:11;;;;;;;15.67;9.90;;;14.90;99.90;;;;;;12851302;23;20210;-86
2023/04/23 17:45:14;;;;;;;14.50;10.30;;;14.80;99.90;;;;;;12853867;23;20220;-86
2023/04/23 17:50:16;;;;;;;13.13;9.70;;;14.50;99.90;;;;;;12852120;23;20487;-86
2023/04/23 17:55:20;;;;;;;14.87;10.07;;;14.30;99.90;;;;;;12826132;23;20179;-86
2023/04/23 18:00:23;;;;;;;13.10;10.90;;;14.20;99.90;;;;;;12852868;23;20505;-86
2023/04/23 18:05:26;;;;;;;14.80;10.90;;;14.10;99.90;;;;;;12850902;23;20237;-86
2023/04/23 18:10:29;;;;;;;12.80;10.17;;;14.00;99.90;;;;;;12851824;23;20173;-86
2023/04/23 18:15:32;;;;;;;13.70;10.93;;;14.00;99.90;;;;;;12852275;23;20612;-86
2023/04/23 18:20:37;;;;;;;12.77;9.03;;;13.90;99.90;;;;;;12869772;23;20191;-86
2023/04/23 18:25:40;;;;;;;14.73;10.53;;;13.90;99.90;;;;;;12852168;23;20177;-86
2023/04/23 18:30:43;;;;;;;10.33;9.20;;;13.90;99.90;;;;;;12850381;23;20180;-85
2023/04/23 18:35:51;;;;;;;13.23;9.87;;;13.80;99.90;;;;;;12851200;23;20180;-86
2023/04/23 18:40:53;;;;;;;12.90;9.77;;;13.80;99.90;;;;;;12855071;23;20500;-86
2023/04/23 18:45:57;;;;;;;15.17;11.17;;;13.80;99.90;;;;;;12863597;23;20171;-86
2023/04/23 18:51:14;;;;;;;11.80;9.83;;;13.80;99.90;;;;;;12850644;23;20182;-86
2023/04/23 18:56:17;;;;;;;16.83;13.03;;;13.80;99.90;;;;;;12847219;23;20737;-86
2023/04/23 19:01:20;;;;;;;20.37;14.57;;;13.80;99.90;;;;;;12845074;23;20200;-86
2023/04/23 19:06:22;;;;;;;28.17;17.13;;;13.70;99.90;;;;;;12842934;23;20182;-86
2023/04/23 19:11:28;;;;;;;33.70;20.27;;;13.60;99.90;;;;;;12845789;23;20212;-87
2023/04/23 19:16:32;;;;;;;32.03;18.90;;;13.70;99.90;;;;;;12855361;23;20175;-86
2023/04/23 19:21:35;;;;;;;28.63;18.70;;;13.60;99.90;;;;;;12845081;23;20210;-86
2023/04/23 19:26:38;;;;;;;25.53;17.37;;;13.60;99.90;;;;;;12846482;23;20179;-86
2023/04/23 19:31:41;;;;;;;16.93;11.40;;;13.50;99.90;;;;;;12845457;23;20491;-86
2023/04/23 19:36:44;;;;;;;28.40;21.20;;;13.40;99.90;;;;;;12850210;23;20169;-87
2023/04/23 19:41:48;;;;;;;41.33;23.30;;;13.50;99.90;;;;;;12846187;23;20179;-86
2023/04/23 19:46:51;;;;;;;35.83;24.83;;;13.50;99.90;;;;;;12847327;23;20674;-85
2023/04/23 19:51:54;;;;;;;33.00;22.40;;;13.50;99.90;;;;;;12850671;23;20234;-85
2023/04/23 19:56:57;;;;;;;27.10;19.67;;;13.50;99.90;;;;;;12852016;23;20175;-85
2023/04/23 20:02:00;;;;;;;24.80;18.40;;;13.50;99.90;;;;;;12856145;23;20214;-85
2023/04/23 20:07:02;;;;;;;19.77;16.43;;;13.50;99.90;;;;;;12855531;23;20205;-85
2023/04/23 20:12:05;;;;;;;23.83;16.57;;;13.50;99.90;;;;;;12857194;23;20701;-85
2023/04/23 20:17:08;;;;;;;23.83;16.97;;;13.40;99.90;;;;;;12862282;23;20194;-85
2023/04/23 20:22:11;;;;;;;31.20;17.70;;;13.30;99.90;;;;;;12874928;23;20537;-87
2023/04/23 20:27:14;;;;;;;28.27;19.60;;;13.40;99.90;;;;;;12857378;23;20198;-87
2023/04/23 20:32:17;;;;;;;26.50;18.87;;;13.40;99.90;;;;;;12856699;23;20232;-87
2023/04/23 20:37:20;;;;;;;26.20;19.03;;;13.50;99.90;;;;;;12856294;23;20253;-87
2023/04/23 20:42:24;;;;;;;25.33;19.40;;;13.50;99.90;;;;;;12855750;23;20206;-86
2023/04/23 20:47:27;;;;;;;28.57;21.37;;;13.40;99.90;;;;;;12851142;23;20237;-87
2023/04/23 20:52:29;;;;;;;32.07;22.73;;;13.30;99.90;;;;;;12852426;23;20212;-86
2023/04/23 20:57:32;;;;;;;28.97;19.60;;;13.30;99.90;;;;;;12851924;23;20205;-87
2023/04/23 21:02:36;;;;;;;25.13;19.83;;;13.20;99.90;;;;;;12852701;23;20249;-86
2023/04/23 21:07:39;;;;;;;26.93;18.57;;;13.20;99.90;;;;;;12870389;23;20202;-87
2023/04/23 21:12:42;;;;;;;30.43;21.43;;;13.10;99.90;;;;;;12870938;23;20220;-87
2023/04/23 21:17:45;;;;;;;27.30;20.87;;;13.10;99.90;;;;;;12854756;23;20569;-86
2023/04/23 21:22:48;;;;;;;32.60;22.20;;;13.00;99.90;;;;;;12855361;23;20179;-87
2023/04/23 21:27:50;;;;;;;32.23;21.87;;;13.00;99.90;;;;;;12855884;23;20171;-87
2023/04/23 21:32:53;;;;;;;22.23;17.70;;;12.80;99.90;;;;;;12856161;23;20507;-88
2023/04/23 21:37:55;;;;;;;26.20;19.90;;;12.90;99.90;;;;;;12855171;23;20198;-88
2023/04/23 21:42:58;;;;;;;27.40;18.80;;;12.70;99.90;;;;;;12855899;23;20209;-87
2023/04/23 21:48:01;;;;;;;24.00;18.37;;;12.70;99.90;;;;;;12856472;23;20634;-87
2023/04/23 21:53:05;;;;;;;24.70;18.47;;;12.80;99.90;;;;;;12857434;23;20168;-87
2023/04/23 21:58:08;;;;;;;23.23;18.13;;;12.50;99.90;;;;;;12857987;23;20212;-87
2023/04/23 22:03:13;;;;;;;22.50;17.90;;;12.10;99.90;;;;;;12856984;23;20183;-87
2023/04/23 22:08:39;;;;;;;21.03;17.23;;;11.80;99.90;;;;;;12856583;23;20179;-88
2023/04/23 22:13:42;;;;;;;18.67;15.13;;;11.60;99.90;;;;;;12856404;23;20168;-87
2023/04/23 22:18:44;;;;;;;21.13;17.23;;;11.50;99.90;;;;;;12856087;23;20187;-87
2023/04/23 22:23:47;;;;;;;22.80;16.83;;;11.30;99.90;;;;;;12873993;23;20246;-87
2023/04/23 22:28:50;;;;;;;18.83;15.20;;;11.10;99.90;;;;;;12858017;23;20638;-87
2023/04/23 22:33:52;;;;;;;21.10;15.20;;;11.00;99.90;;;;;;12853091;23;20239;-87
2023/04/23 22:38:55;;;;;;;22.37;16.87;;;10.90;99.90;;;;;;12853995;23;20212;-87
2023/04/23 22:43:57;;;;;;;23.00;16.10;;;10.70;99.90;;;;;;12853081;23;20179;-87
2023/04/23 22:49:01;;;;;;;18.67;16.13;;;10.60;99.90;;;;;;12853005;23;20171;-87
2023/04/23 22:54:04;;;;;;;19.90;15.63;;;10.50;99.90;;;;;;12872929;23;20175;-87
2023/04/23 22:59:10;;;;;;;19.33;14.33;;;10.50;99.90;;;;;;12853350;23;20257;-87
2023/04/23 23:04:13;;;;;;;18.27;13.97;;;10.40;99.90;;;;;;12871360;23;20210;-88
2023/04/23 23:09:16;;;;;;;19.40;11.47;;;10.30;99.90;;;;;;12872043;23;20171;-87
2023/04/23 23:14:19;;;;;;;18.43;14.17;;;10.40;99.90;;;;;;12853388;23;20193;-87
2023/04/23 23:19:29;;;;;;;16.03;12.40;;;10.50;99.90;;;;;;12870617;23;20192;-87
2023/04/23 23:24:33;;;;;;;15.60;13.20;;;10.60;99.90;;;;;;12872197;23;20163;-87
2023/04/23 23:29:36;;;;;;;15.37;12.80;;;10.60;99.90;;;;;;12849941;23;20186;-87
2023/04/23 23:34:38;;;;;;;16.27;12.93;;;10.80;99.90;;;;;;12852220;23;20179;-87
2023/04/23 23:39:41;;;;;;;15.77;13.77;;;10.80;99.90;;;;;;12853305;23;20734;-86
2023/04/23 23:44:44;;;;;;;20.33;14.17;;;10.80;99.90;;;;;;12871704;23;20201;-87
2023/04/23 23:49:47;;;;;;;22.97;14.60;;;10.70;99.90;;;;;;12872028;23;20238;-87
2023/04/23 23:54:50;;;;;;;21.43;15.53;;;10.70;99.90;;;;;;12853673;23;20183;-87
2023/04/23 23:59:52;;;;;;;18.77;14.57;;;10.80;99.90;;;;;;12854036;23;20302;-87
